createdAt,value
2023-04-18T00:00:36.719Z,961.29
2023-04-18T00:01:36.731Z,961.29
2023-04-18T00:02:36.827Z,961.29
2023-04-18T00:03:36.927Z,961.26
2023-04-18T00:04:36.758Z,961.25
2023-04-18T00:05:36.576Z,961.24
2023-04-18T00:06:36.541Z,961.25
2023-04-18T00:07:36.518Z,961.26
2023-04-18T00:08:36.490Z,961.27
2023-04-18T00:09:36.470Z,961.23
2023-04-18T00:10:36.423Z,961.25
2023-04-18T00:11:36.396Z,961.25
2023-04-18T00:12:36.371Z,961.26
2023-04-18T00:13:36.335Z,961.23
2023-04-18T00:14:36.307Z,961.23
2023-04-18T00:15:36.284Z,961.25
2023-04-18T00:16:36.326Z,961.25
2023-04-18T00:17:36.245Z,961.27
2023-04-18T00:18:36.190Z,961.25
2023-04-18T00:19:36.181Z,961.27
2023-04-18T00:20:36.132Z,961.26
2023-04-18T00:21:36.118Z,961.23
2023-04-18T00:22:36.094Z,961.20
2023-04-18T00:23:36.068Z,961.19
2023-04-18T00:24:36.016Z,961.20
2023-04-18T00:25:35.987Z,961.24
2023-04-18T00:26:35.958Z,961.21
2023-04-18T00:27:35.929Z,961.23
2023-04-18T00:28:35.900Z,961.20
2023-04-18T00:29:35.878Z,961.19
2023-04-18T00:30:35.873Z,961.17
2023-04-18T00:31:35.809Z,961.15
2023-04-18T00:32:35.968Z,961.14
2023-04-18T00:33:35.760Z,961.19
2023-04-18T00:34:35.725Z,961.15
2023-04-18T00:35:35.728Z,961.19
2023-04-18T00:36:35.669Z,961.15
2023-04-18T00:37:35.644Z,961.17
2023-04-18T00:38:35.613Z,961.15
2023-04-18T00:39:35.581Z,961.17
2023-04-18T00:40:35.570Z,961.22
2023-04-18T00:41:35.521Z,961.15
2023-04-18T00:42:35.495Z,961.15
2023-04-18T00:43:35.465Z,961.15
2023-04-18T00:44:35.439Z,961.17
2023-04-18T00:45:35.416Z,961.15
2023-04-18T00:46:35.435Z,961.14
2023-04-18T00:47:35.382Z,961.12
2023-04-18T00:48:35.324Z,961.10
2023-04-18T00:49:35.297Z,961.14
2023-04-18T00:50:35.280Z,961.14
2023-04-18T00:51:35.274Z,961.17
2023-04-18T00:52:35.217Z,961.15
2023-04-18T00:53:35.184Z,961.15
2023-04-18T00:54:35.151Z,961.15
2023-04-18T00:55:35.120Z,961.12
2023-04-18T00:56:35.106Z,961.12
2023-04-18T00:57:35.064Z,961.11
2023-04-18T00:58:35.036Z,961.09
2023-04-18T00:59:35.005Z,961.10
2023-04-18T01:00:34.993Z,961.09
2023-04-18T01:01:34.981Z,961.07
2023-04-18T01:02:35.027Z,961.11
2023-04-18T01:03:35.183Z,961.09
2023-04-18T01:04:35.014Z,961.06
2023-04-18T01:05:34.836Z,961.04
2023-04-18T01:06:34.806Z,961.02
2023-04-18T01:07:34.837Z,961.02
2023-04-18T01:08:34.749Z,961.05
2023-04-18T01:09:34.717Z,961.03
2023-04-18T01:10:34.695Z,961.01
2023-04-18T01:11:34.661Z,960.98
2023-04-18T01:12:34.629Z,960.96
2023-04-18T01:13:34.604Z,961.01
2023-04-18T01:14:34.575Z,960.97
2023-04-18T01:15:34.564Z,960.98
2023-04-18T01:16:34.517Z,960.97
2023-04-18T01:17:34.548Z,960.97
2023-04-18T01:18:34.467Z,960.97
2023-04-18T01:19:34.440Z,960.99
2023-04-18T01:20:34.402Z,960.97
2023-04-18T01:21:34.372Z,960.96
2023-04-18T01:22:34.345Z,960.93
2023-04-18T01:23:34.333Z,960.94
2023-04-18T01:24:34.289Z,960.94
2023-04-18T01:25:34.263Z,960.92
2023-04-18T01:26:34.234Z,960.90
2023-04-18T01:27:34.197Z,960.89
2023-04-18T01:28:34.173Z,960.89
2023-04-18T01:29:34.144Z,960.85
2023-04-18T01:30:34.114Z,960.85
2023-04-18T01:31:34.133Z,960.83
2023-04-18T01:32:34.102Z,960.83
2023-04-18T01:33:34.029Z,960.85
2023-04-18T01:34:33.996Z,960.85
2023-04-18T01:35:33.969Z,960.83
2023-04-18T01:36:33.957Z,960.83
2023-04-18T01:37:33.916Z,960.82
2023-04-18T01:38:33.884Z,960.81
2023-04-18T01:39:33.943Z,960.79
2023-04-18T01:40:33.831Z,960.78
2023-04-18T01:41:33.797Z,960.77
2023-04-18T01:42:33.767Z,960.77
2023-04-18T01:43:33.741Z,960.79
2023-04-18T01:44:33.729Z,960.78
2023-04-18T01:45:33.688Z,960.76
2023-04-18T01:46:33.679Z,960.74
2023-04-18T01:47:33.659Z,960.75
2023-04-18T01:48:33.598Z,960.76
2023-04-18T01:49:33.568Z,960.70
2023-04-18T01:50:33.541Z,960.73
2023-04-18T01:51:33.512Z,960.74
2023-04-18T01:52:33.488Z,960.70
2023-04-18T01:53:33.454Z,960.70
2023-04-18T01:54:33.426Z,960.73
2023-04-18T01:55:33.417Z,960.71
2023-04-18T01:56:33.374Z,960.65
2023-04-18T01:57:33.336Z,960.66
2023-04-18T01:58:33.310Z,960.65
2023-04-18T01:59:33.282Z,960.67
2023-04-18T02:00:33.272Z,960.71
2023-04-18T02:01:33.225Z,960.69
2023-04-18T02:02:33.419Z,960.69
2023-04-18T02:03:33.406Z,960.64
2023-04-18T02:04:33.141Z,960.62
2023-04-18T02:05:33.110Z,960.59
2023-04-18T02:06:33.081Z,960.66
2023-04-18T02:07:33.053Z,960.58
2023-04-18T02:08:33.022Z,960.63
2023-04-18T02:09:32.999Z,960.58
2023-04-18T02:10:32.967Z,960.61
2023-04-18T02:11:32.978Z,960.60
2023-04-18T02:12:32.907Z,960.56
2023-04-18T02:13:32.927Z,960.56
2023-04-18T02:14:32.853Z,960.57
2023-04-18T02:15:32.825Z,960.56
2023-04-18T02:16:32.888Z,960.55
2023-04-18T02:17:32.793Z,960.53
2023-04-18T02:18:32.737Z,960.55
2023-04-18T02:19:32.709Z,960.51
2023-04-18T02:20:32.684Z,960.50
2023-04-18T02:21:32.659Z,960.51
2023-04-18T02:22:32.623Z,960.56
2023-04-18T02:23:32.597Z,960.52
2023-04-18T02:24:32.565Z,960.52
2023-04-18T02:25:32.535Z,960.50
2023-04-18T02:26:32.510Z,960.50
2023-04-18T02:27:32.505Z,960.54
2023-04-18T02:28:32.451Z,960.53
2023-04-18T02:29:32.427Z,960.53
2023-04-18T02:30:32.398Z,960.49
2023-04-18T02:31:32.409Z,960.49
2023-04-18T02:32:32.354Z,960.51
2023-04-18T02:33:32.329Z,960.51
2023-04-18T02:34:32.278Z,960.52
2023-04-18T02:35:32.251Z,960.52
2023-04-18T02:36:32.221Z,960.52
2023-04-18T02:37:32.196Z,960.52
2023-04-18T02:38:32.165Z,960.49
2023-04-18T02:39:32.144Z,960.52
2023-04-18T02:40:32.114Z,960.50
2023-04-18T02:41:32.085Z,960.52
2023-04-18T02:42:32.048Z,960.52
2023-04-18T02:43:32.041Z,960.51
2023-04-18T02:44:31.991Z,960.51
2023-04-18T02:45:31.966Z,960.46
2023-04-18T02:46:31.970Z,960.46
2023-04-18T02:47:37.714Z,960.46
2023-04-18T02:48:31.945Z,960.45
2023-04-18T02:49:31.849Z,960.48
2023-04-18T02:50:31.822Z,960.47
2023-04-18T02:51:31.789Z,960.47
2023-04-18T02:52:31.760Z,960.48
2023-04-18T02:53:31.737Z,960.46
2023-04-18T02:54:31.702Z,960.49
2023-04-18T02:55:31.671Z,960.48
2023-04-18T02:56:31.645Z,960.44
2023-04-18T02:57:31.618Z,960.45
2023-04-18T02:58:31.586Z,960.47
2023-04-18T02:59:31.575Z,960.45
2023-04-18T03:00:31.540Z,960.45
2023-04-18T03:01:31.574Z,960.45
2023-04-18T03:02:31.619Z,960.45
2023-04-18T03:03:31.494Z,960.44
2023-04-18T03:04:31.464Z,960.45
2023-04-18T03:05:31.393Z,960.46
2023-04-18T03:06:31.353Z,960.44
2023-04-18T03:07:31.326Z,960.45
2023-04-18T03:08:31.301Z,960.43
2023-04-18T03:09:31.272Z,960.42
2023-04-18T03:10:31.243Z,960.43
2023-04-18T03:11:31.213Z,960.40
2023-04-18T03:12:31.184Z,960.37
2023-04-18T03:13:31.160Z,960.38
2023-04-18T03:14:31.131Z,960.34
2023-04-18T03:15:31.166Z,960.33
2023-04-18T03:16:31.068Z,960.38
2023-04-18T03:17:31.064Z,960.36
2023-04-18T03:18:31.012Z,960.37
2023-04-18T03:19:30.984Z,960.33
2023-04-18T03:20:30.952Z,960.35
2023-04-18T03:21:30.924Z,960.35
2023-04-18T03:22:30.893Z,960.34
2023-04-18T03:23:30.869Z,960.30
2023-04-18T03:24:30.836Z,960.33
2023-04-18T03:25:30.810Z,960.34
2023-04-18T03:26:30.783Z,960.35
2023-04-18T03:27:30.760Z,960.34
2023-04-18T03:28:30.723Z,960.35
2023-04-18T03:29:30.693Z,960.32
2023-04-18T03:30:30.665Z,960.36
2023-04-18T03:31:30.754Z,960.35
2023-04-18T03:32:30.635Z,960.32
2023-04-18T03:33:30.584Z,960.34
2023-04-18T03:34:30.573Z,960.35
2023-04-18T03:35:30.520Z,960.31
2023-04-18T03:36:30.488Z,960.35
2023-04-18T03:37:30.463Z,960.28
2023-04-18T03:38:30.431Z,960.32
2023-04-18T03:39:30.405Z,960.30
2023-04-18T03:40:30.379Z,960.29
2023-04-18T03:41:30.359Z,960.30
2023-04-18T03:42:30.331Z,960.34
2023-04-18T03:43:30.289Z,960.31
2023-04-18T03:44:30.259Z,960.32
2023-04-18T03:45:30.235Z,960.31
2023-04-18T03:46:30.218Z,960.34
2023-04-18T03:47:30.227Z,960.30
2023-04-18T03:48:30.143Z,960.29
2023-04-18T03:49:30.123Z,960.31
2023-04-18T03:50:30.088Z,960.30
2023-04-18T03:51:30.055Z,960.30
2023-04-18T03:52:30.082Z,960.30
2023-04-18T03:53:30.007Z,960.29
2023-04-18T03:54:29.970Z,960.25
2023-04-18T03:55:29.958Z,960.26
2023-04-18T03:56:29.922Z,960.24
2023-04-18T03:57:29.901Z,960.29
2023-04-18T03:58:29.858Z,960.21
2023-04-18T03:59:29.833Z,960.26
2023-04-18T04:00:29.811Z,960.28
2023-04-18T04:01:29.822Z,960.26
2023-04-18T04:02:29.839Z,960.24
2023-04-18T04:03:29.780Z,960.25
2023-04-18T04:04:29.704Z,960.26
2023-04-18T04:05:29.664Z,960.22
2023-04-18T04:06:29.627Z,960.27
2023-04-18T04:07:29.601Z,960.28
2023-04-18T04:08:29.582Z,960.23
2023-04-18T04:09:29.546Z,960.21
2023-04-18T04:10:29.532Z,960.21
2023-04-18T04:11:29.494Z,960.26
2023-04-18T04:12:29.455Z,960.26
2023-04-18T04:13:29.431Z,960.25
2023-04-18T04:14:29.397Z,960.26
2023-04-18T04:15:29.375Z,960.26
2023-04-18T04:16:29.441Z,960.28
2023-04-18T04:17:29.379Z,960.27
2023-04-18T04:18:29.284Z,960.26
2023-04-18T04:19:29.280Z,960.24
2023-04-18T04:20:29.227Z,960.31
2023-04-18T04:21:29.196Z,960.26
2023-04-18T04:22:29.169Z,960.31
2023-04-18T04:23:29.145Z,960.32
2023-04-18T04:24:29.151Z,960.33
2023-04-18T04:25:29.084Z,960.30
2023-04-18T04:26:29.054Z,960.33
2023-04-18T04:27:29.024Z,960.32
2023-04-18T04:28:29.006Z,960.31
2023-04-18T04:29:29.017Z,960.32
2023-04-18T04:30:28.955Z,960.32
2023-04-18T04:31:28.968Z,960.29
2023-04-18T04:32:28.898Z,960.31
2023-04-18T04:33:28.890Z,960.31
2023-04-18T04:34:28.819Z,960.31
2023-04-18T04:35:28.823Z,960.36
2023-04-18T04:36:28.758Z,960.35
2023-04-18T04:37:28.739Z,960.41
2023-04-18T04:38:28.702Z,960.38
2023-04-18T04:39:28.680Z,960.37
2023-04-18T04:40:28.643Z,960.35
2023-04-18T04:41:28.640Z,960.40
2023-04-18T04:42:28.584Z,960.40
2023-04-18T04:43:28.560Z,960.41
2023-04-18T04:44:28.547Z,960.41
2023-04-18T04:45:28.532Z,960.42
2023-04-18T04:46:28.469Z,960.45
2023-04-18T04:47:28.478Z,960.40
2023-04-18T04:48:28.415Z,960.42
2023-04-18T04:49:28.391Z,960.45
2023-04-18T04:50:28.355Z,960.45
2023-04-18T04:51:28.342Z,960.43
2023-04-18T04:52:28.296Z,960.45
2023-04-18T04:53:28.285Z,960.43
2023-04-18T04:54:28.240Z,960.46
2023-04-18T04:55:28.222Z,960.45
2023-04-18T04:56:28.181Z,960.49
2023-04-18T04:57:28.156Z,960.46
2023-04-18T04:58:28.126Z,960.44
2023-04-18T04:59:28.098Z,960.47
2023-04-18T05:00:28.075Z,960.47
2023-04-18T05:01:28.078Z,960.46
2023-04-18T05:02:28.184Z,960.48
2023-04-18T05:03:28.105Z,960.48
2023-04-18T05:04:28.104Z,960.50
2023-04-18T05:05:27.928Z,960.51
2023-04-18T05:06:27.894Z,960.47
2023-04-18T05:07:27.904Z,960.51
2023-04-18T05:08:27.840Z,960.49
2023-04-18T05:09:27.807Z,960.49
2023-04-18T05:10:27.777Z,960.52
2023-04-18T05:11:27.772Z,960.52
2023-04-18T05:12:27.720Z,960.49
2023-04-18T05:13:27.692Z,960.53
2023-04-18T05:14:27.663Z,960.48
2023-04-18T05:15:27.637Z,960.44
2023-04-18T05:16:27.632Z,960.49
2023-04-18T05:17:27.588Z,960.50
2023-04-18T05:18:27.546Z,960.49
2023-04-18T05:19:27.514Z,960.50
2023-04-18T05:20:27.487Z,960.48
2023-04-18T05:21:27.465Z,960.58
2023-04-18T05:22:27.445Z,960.54
2023-04-18T05:23:27.419Z,960.53
2023-04-18T05:24:27.370Z,960.54
2023-04-18T05:25:27.346Z,960.57
2023-04-18T05:26:27.317Z,960.56
2023-04-18T05:27:27.285Z,960.53
2023-04-18T05:28:27.258Z,960.51
2023-04-18T05:29:27.231Z,960.55
2023-04-18T05:30:27.208Z,960.56
2023-04-18T05:31:27.275Z,960.52
2023-04-18T05:32:27.194Z,960.55
2023-04-18T05:33:27.125Z,960.57
2023-04-18T05:34:27.082Z,960.57
2023-04-18T05:35:27.066Z,960.56
2023-04-18T05:36:27.032Z,960.59
2023-04-18T05:37:26.999Z,960.55
2023-04-18T05:38:26.982Z,960.59
2023-04-18T05:39:27.062Z,960.60
2023-04-18T05:40:26.916Z,960.61
2023-04-18T05:41:26.886Z,960.55
2023-04-18T05:42:26.863Z,960.62
2023-04-18T05:43:26.832Z,960.57
2023-04-18T05:44:26.797Z,960.63
2023-04-18T05:45:26.774Z,960.62
2023-04-18T05:46:26.782Z,960.62
2023-04-18T05:47:26.771Z,960.63
2023-04-18T05:48:26.685Z,960.63
2023-04-18T05:49:26.654Z,960.62
2023-04-18T05:50:26.623Z,960.60
2023-04-18T05:51:26.615Z,960.61
2023-04-18T05:52:26.570Z,960.63
2023-04-18T05:53:26.539Z,960.64
2023-04-18T05:54:26.516Z,960.60
2023-04-18T05:55:26.510Z,960.61
2023-04-18T05:56:26.451Z,960.65
2023-04-18T05:57:26.423Z,960.65
2023-04-18T05:58:26.394Z,960.66
2023-04-18T05:59:26.366Z,960.63
2023-04-18T06:00:26.337Z,960.64
2023-04-18T06:01:26.311Z,960.63
2023-04-18T06:02:26.531Z,960.65
2023-04-18T06:03:26.503Z,960.68
2023-04-18T06:04:26.300Z,960.71
2023-04-18T06:05:26.465Z,960.70
2023-04-18T06:06:26.172Z,960.69
2023-04-18T06:07:26.170Z,960.68
2023-04-18T06:08:26.107Z,960.66
2023-04-18T06:09:26.084Z,960.70
2023-04-18T06:10:26.046Z,960.71
2023-04-18T06:11:26.038Z,960.70
2023-04-18T06:12:25.991Z,960.72
2023-04-18T06:13:25.963Z,960.74
2023-04-18T06:14:25.932Z,960.74
2023-04-18T06:15:25.906Z,960.72
2023-04-18T06:16:25.923Z,960.79
2023-04-18T06:17:25.875Z,960.75
2023-04-18T06:18:25.828Z,960.74
2023-04-18T06:19:25.800Z,960.75
2023-04-18T06:20:25.793Z,960.77
2023-04-18T06:21:25.809Z,960.77
2023-04-18T06:22:25.798Z,960.77
2023-04-18T06:23:25.682Z,960.74
2023-04-18T06:24:25.659Z,960.79
2023-04-18T06:25:25.617Z,960.79
2023-04-18T06:26:25.585Z,960.82
2023-04-18T06:27:31.460Z,960.81
2023-04-18T06:28:25.531Z,960.83
2023-04-18T06:29:25.504Z,960.80
2023-04-18T06:30:25.483Z,960.80
2023-04-18T06:31:25.509Z,960.76
2023-04-18T06:32:25.491Z,960.81
2023-04-18T06:33:25.401Z,960.82
2023-04-18T06:34:25.355Z,960.82
2023-04-18T06:35:26.696Z,960.82
2023-04-18T06:36:25.302Z,960.82
2023-04-18T06:37:25.272Z,960.80
2023-04-18T06:38:25.275Z,960.81
2023-04-18T06:39:25.216Z,960.78
2023-04-18T06:40:25.210Z,960.82
2023-04-18T06:41:25.165Z,960.79
2023-04-18T06:42:25.131Z,960.78
2023-04-18T06:43:25.249Z,960.83
2023-04-18T06:44:25.080Z,960.79
2023-04-18T06:45:25.050Z,960.84
2023-04-18T06:46:25.201Z,960.83
2023-04-18T06:47:25.050Z,960.85
2023-04-18T06:48:24.963Z,960.82
2023-04-18T06:49:26.340Z,960.81
2023-04-18T06:50:24.923Z,960.85
2023-04-18T06:51:24.880Z,960.84
2023-04-18T06:52:24.845Z,960.86
2023-04-18T06:53:24.818Z,960.84
2023-04-18T06:54:24.789Z,960.86
2023-04-18T06:55:24.762Z,960.84
2023-04-18T06:56:24.739Z,960.89
2023-04-18T06:57:24.703Z,960.87
2023-04-18T06:58:24.681Z,960.86
2023-04-18T06:59:24.680Z,960.82
2023-04-18T07:00:24.619Z,960.87
2023-04-18T07:01:24.620Z,960.86
2023-04-18T07:02:24.687Z,960.83
2023-04-18T07:03:24.645Z,960.81
2023-04-18T07:04:24.831Z,960.87
2023-04-18T07:05:24.472Z,960.84
2023-04-18T07:06:24.445Z,960.86
2023-04-18T07:07:24.419Z,960.89
2023-04-18T07:08:24.391Z,960.87
2023-04-18T07:09:24.360Z,960.86
2023-04-18T07:10:24.375Z,960.89
2023-04-18T07:11:24.304Z,960.88
2023-04-18T07:12:24.275Z,960.89
2023-04-18T07:13:24.248Z,960.90
2023-04-18T07:14:24.227Z,960.90
2023-04-18T07:15:24.219Z,960.87
2023-04-18T07:16:24.207Z,960.86
2023-04-18T07:17:24.145Z,960.87
2023-04-18T07:18:36.502Z,960.91
2023-04-18T07:19:24.071Z,960.86
2023-04-18T07:20:24.046Z,960.90
2023-04-18T07:21:24.035Z,960.86
2023-04-18T07:22:23.991Z,960.86
2023-04-18T07:23:23.959Z,960.84
2023-04-18T07:24:23.941Z,960.87
2023-04-18T07:25:23.901Z,960.90
2023-04-18T07:26:23.873Z,960.90
2023-04-18T07:27:23.852Z,960.87
2023-04-18T07:28:23.817Z,960.89
2023-04-18T07:29:23.792Z,960.91
2023-04-18T07:30:23.767Z,960.85
2023-04-18T07:31:23.870Z,960.86
2023-04-18T07:32:23.746Z,960.90
2023-04-18T07:33:23.673Z,960.86
2023-04-18T07:34:23.647Z,960.85
2023-04-18T07:35:23.619Z,960.90
2023-04-18T07:36:23.612Z,960.91
2023-04-18T07:37:23.623Z,960.91
2023-04-18T07:38:23.536Z,960.93
2023-04-18T07:39:23.507Z,960.90
2023-04-18T07:40:23.486Z,960.93
2023-04-18T07:41:23.473Z,960.94
2023-04-18T07:42:23.428Z,960.97
2023-04-18T07:43:23.396Z,960.94
2023-04-18T07:44:23.371Z,960.93
2023-04-18T07:45:23.345Z,960.93
2023-04-18T07:46:23.339Z,960.96
2023-04-18T07:47:23.336Z,960.95
2023-04-18T07:48:23.258Z,960.94
2023-04-18T07:49:23.230Z,960.92
2023-04-18T07:50:23.202Z,960.94
2023-04-18T07:51:23.173Z,961.02
2023-04-18T07:52:23.149Z,960.99
2023-04-18T07:53:23.118Z,961.02
2023-04-18T07:54:23.100Z,960.98
2023-04-18T07:55:23.068Z,961.00
2023-04-18T07:56:23.044Z,961.00
2023-04-18T07:57:23.008Z,961.06
2023-04-18T07:58:22.980Z,961.03
2023-04-18T07:59:22.961Z,961.11
2023-04-18T08:00:22.923Z,961.13
2023-04-18T08:01:22.896Z,961.12
2023-04-18T08:02:23.014Z,961.13
2023-04-18T08:03:23.215Z,961.16
2023-04-18T08:04:23.030Z,961.16
2023-04-18T08:05:22.839Z,961.17
2023-04-18T08:06:22.779Z,961.15
2023-04-18T08:07:22.731Z,961.18
2023-04-18T08:08:22.719Z,961.15
2023-04-18T08:09:22.675Z,961.14
2023-04-18T08:10:23.913Z,961.20
2023-04-18T08:11:22.649Z,961.16
2023-04-18T08:12:22.593Z,961.14
2023-04-18T08:13:22.573Z,961.15
2023-04-18T08:14:22.540Z,961.19
2023-04-18T08:15:22.510Z,961.19
2023-04-18T08:16:22.509Z,961.17
2023-04-18T08:17:22.469Z,961.16
2023-04-18T08:18:22.431Z,961.16
2023-04-18T08:19:22.475Z,961.13
2023-04-18T08:20:22.382Z,961.14
2023-04-18T08:21:22.354Z,961.11
2023-04-18T08:22:22.325Z,961.14
2023-04-18T08:23:22.297Z,961.08
2023-04-18T08:24:22.270Z,961.09
2023-04-18T08:25:22.242Z,961.09
2023-04-18T08:26:22.234Z,961.14
2023-04-18T08:27:22.190Z,961.02
2023-04-18T08:28:22.166Z,961.04
2023-04-18T08:29:22.135Z,961.11
2023-04-18T08:30:22.106Z,961.03
2023-04-18T08:31:22.105Z,961.04
2023-04-18T08:32:22.121Z,961.05
2023-04-18T08:33:22.029Z,961.01
2023-04-18T08:34:22.012Z,961.07
2023-04-18T08:35:22.013Z,961.06
2023-04-18T08:36:21.993Z,961.07
2023-04-18T08:37:21.924Z,961.06
2023-04-18T08:38:21.896Z,961.08
2023-04-18T08:39:23.144Z,961.12
2023-04-18T08:40:21.854Z,961.18
2023-04-18T08:41:21.816Z,961.16
2023-04-18T08:42:21.786Z,961.16
2023-04-18T08:43:21.759Z,961.17
2023-04-18T08:44:21.749Z,961.17
2023-04-18T08:45:21.703Z,961.19
2023-04-18T08:46:21.705Z,961.22
2023-04-18T08:47:21.681Z,961.21
2023-04-18T08:48:21.626Z,961.22
2023-04-18T08:49:21.597Z,961.24
2023-04-18T08:50:21.571Z,961.22
2023-04-18T08:51:21.714Z,961.34
2023-04-18T08:52:21.531Z,961.28
2023-04-18T08:53:21.488Z,961.29
2023-04-18T08:54:21.463Z,961.27
2023-04-18T08:55:21.433Z,961.33
2023-04-18T08:56:21.408Z,961.25
2023-04-18T08:57:21.380Z,961.24
2023-04-18T08:58:21.350Z,961.21
2023-04-18T08:59:21.347Z,961.24
2023-04-18T09:00:21.306Z,961.30
2023-04-18T09:01:21.311Z,961.32
2023-04-18T09:02:21.282Z,961.31
2023-04-18T09:03:21.274Z,961.28
2023-04-18T09:04:21.222Z,961.31
2023-04-18T09:05:21.165Z,961.34
2023-04-18T09:06:21.137Z,961.25
2023-04-18T09:07:21.161Z,961.30
2023-04-18T09:08:21.091Z,961.31
2023-04-18T09:09:21.057Z,961.31
2023-04-18T09:10:21.031Z,961.29
2023-04-18T09:11:21.011Z,961.30
2023-04-18T09:12:20.983Z,961.28
2023-04-18T09:13:22.081Z,961.32
2023-04-18T09:14:20.924Z,961.32
2023-04-18T09:15:20.901Z,961.30
2023-04-18T09:16:20.925Z,961.35
2023-04-18T09:17:20.850Z,961.27
2023-04-18T09:18:20.817Z,961.28
2023-04-18T09:19:20.796Z,961.28
2023-04-18T09:20:20.762Z,961.24
2023-04-18T09:21:20.740Z,961.27
2023-04-18T09:22:20.713Z,961.29
2023-04-18T09:23:20.711Z,961.26
2023-04-18T09:24:20.698Z,961.30
2023-04-18T09:25:20.634Z,961.29
2023-04-18T09:26:20.610Z,961.29
2023-04-18T09:27:20.580Z,961.26
2023-04-18T09:28:20.561Z,961.27
2023-04-18T09:29:20.538Z,961.31
2023-04-18T09:30:20.508Z,961.29
2023-04-18T09:31:20.519Z,961.22
2023-04-18T09:32:20.507Z,961.23
2023-04-18T09:33:20.426Z,961.24
2023-04-18T09:34:20.408Z,961.29
2023-04-18T09:35:20.370Z,961.31
2023-04-18T09:36:20.451Z,961.30
2023-04-18T09:37:20.322Z,961.27
2023-04-18T09:38:20.296Z,961.31
2023-04-18T09:39:20.308Z,961.26
2023-04-18T09:40:20.245Z,961.28
2023-04-18T09:41:21.572Z,961.32
2023-04-18T09:42:20.204Z,961.29
2023-04-18T09:43:20.169Z,961.32
2023-04-18T09:44:20.594Z,961.37
2023-04-18T09:45:20.114Z,961.37
2023-04-18T09:46:20.136Z,961.33
2023-04-18T09:47:20.059Z,961.39
2023-04-18T09:48:20.034Z,961.36
2023-04-18T09:49:20.011Z,961.36
2023-04-18T09:50:19.984Z,961.40
2023-04-18T09:51:19.958Z,961.36
2023-04-18T09:52:19.937Z,961.31
2023-04-18T09:53:21.008Z,961.36
2023-04-18T09:54:19.883Z,961.45
2023-04-18T09:55:19.893Z,961.39
2023-04-18T09:56:19.833Z,961.39
2023-04-18T09:57:19.803Z,961.41
2023-04-18T09:58:19.770Z,961.41
2023-04-18T09:59:21.218Z,961.41
2023-04-18T10:00:19.715Z,961.35
2023-04-18T10:01:19.730Z,961.36
2023-04-18T10:02:19.760Z,961.36
2023-04-18T10:03:19.866Z,961.35
2023-04-18T10:04:19.733Z,961.35
2023-04-18T10:05:21.133Z,961.39
2023-04-18T10:06:19.566Z,961.35
2023-04-18T10:07:19.535Z,961.37
2023-04-18T10:08:19.510Z,961.35
2023-04-18T10:09:19.482Z,961.34
2023-04-18T10:10:19.459Z,961.38
2023-04-18T10:11:20.350Z,961.29
2023-04-18T10:12:19.420Z,961.31
2023-04-18T10:13:19.380Z,961.32
2023-04-18T10:14:19.354Z,961.42
2023-04-18T10:15:19.329Z,961.31
2023-04-18T10:16:19.349Z,961.31
2023-04-18T10:17:19.311Z,961.38
2023-04-18T10:18:19.288Z,961.35
2023-04-18T10:19:19.226Z,961.32
2023-04-18T10:20:19.200Z,961.31
2023-04-18T10:21:19.190Z,961.27
2023-04-18T10:22:19.159Z,961.26
2023-04-18T10:23:19.123Z,961.34
2023-04-18T10:24:19.099Z,961.34
2023-04-18T10:25:19.070Z,961.35
2023-04-18T10:26:19.051Z,961.40
2023-04-18T10:27:19.096Z,961.46
2023-04-18T10:28:18.997Z,961.38
2023-04-18T10:29:18.971Z,961.42
2023-04-18T10:30:18.945Z,961.39
2023-04-18T10:31:18.932Z,961.33
2023-04-18T10:32:18.895Z,961.33
2023-04-18T10:33:29.422Z,961.33
2023-04-18T10:34:18.914Z,961.32
2023-04-18T10:35:18.824Z,961.36
2023-04-18T10:36:18.795Z,961.36
2023-04-18T10:37:18.805Z,961.33
2023-04-18T10:38:18.743Z,961.32
2023-04-18T10:39:18.720Z,961.32
2023-04-18T10:40:18.697Z,961.32
2023-04-18T10:41:18.685Z,961.31
2023-04-18T10:42:18.651Z,961.32
2023-04-18T10:43:18.659Z,961.27
2023-04-18T10:44:18.655Z,961.31
2023-04-18T10:45:18.563Z,961.30
2023-04-18T10:46:31.103Z,961.33
2023-04-18T10:47:18.521Z,961.25
2023-04-18T10:48:18.525Z,961.27
2023-04-18T10:49:18.474Z,961.24
2023-04-18T10:50:18.437Z,961.21
2023-04-18T10:51:18.428Z,961.23
2023-04-18T10:52:18.389Z,961.19
2023-04-18T10:53:18.362Z,961.18
2023-04-18T10:54:18.338Z,961.19
2023-04-18T10:55:18.325Z,961.20
2023-04-18T10:56:18.283Z,961.14
2023-04-18T10:57:18.261Z,961.14
2023-04-18T10:58:18.230Z,961.12
2023-04-18T10:59:18.354Z,961.17
2023-04-18T11:00:18.185Z,961.16
2023-04-18T11:01:18.199Z,961.18
2023-04-18T11:02:18.183Z,961.18
2023-04-18T11:03:18.260Z,961.17
2023-04-18T11:04:18.410Z,961.19
2023-04-18T11:05:18.053Z,961.18
2023-04-18T11:06:18.025Z,961.22
2023-04-18T11:07:18.003Z,961.25
2023-04-18T11:08:17.986Z,961.21
2023-04-18T11:09:17.950Z,961.19
2023-04-18T11:10:17.939Z,961.16
2023-04-18T11:11:17.915Z,961.15
2023-04-18T11:12:17.971Z,961.16
2023-04-18T11:13:17.848Z,961.14
2023-04-18T11:14:18.011Z,961.18
2023-04-18T11:15:17.997Z,961.14
2023-04-18T11:16:17.787Z,961.14
2023-04-18T11:17:17.749Z,961.16
2023-04-18T11:18:17.731Z,961.15
2023-04-18T11:19:17.696Z,961.08
2023-04-18T11:20:17.673Z,961.15
2023-04-18T11:21:17.669Z,961.18
2023-04-18T11:22:17.630Z,961.20
2023-04-18T11:23:17.595Z,961.09
2023-04-18T11:24:17.575Z,961.08
2023-04-18T11:25:17.561Z,961.14
2023-04-18T11:26:17.526Z,961.13
2023-04-18T11:27:17.494Z,961.12
2023-04-18T11:28:17.469Z,961.10
2023-04-18T11:29:17.450Z,961.13
2023-04-18T11:30:17.421Z,961.14
2023-04-18T11:31:17.451Z,961.12
2023-04-18T11:32:17.475Z,961.09
2023-04-18T11:33:17.413Z,961.12
2023-04-18T11:34:17.324Z,961.11
2023-04-18T11:35:17.304Z,960.99
2023-04-18T11:36:17.271Z,961.19
2023-04-18T11:37:17.245Z,961.13
2023-04-18T11:38:17.217Z,961.12
2023-04-18T11:39:17.193Z,961.15
2023-04-18T11:40:17.187Z,961.22
2023-04-18T11:41:17.145Z,961.15
2023-04-18T11:42:17.114Z,961.09
2023-04-18T11:43:17.094Z,961.09
2023-04-18T11:44:17.071Z,961.12
2023-04-18T11:45:17.041Z,961.13
2023-04-18T11:46:17.070Z,961.21
2023-04-18T11:47:17.056Z,961.17
2023-04-18T11:48:16.967Z,961.10
2023-04-18T11:49:16.953Z,961.10
2023-04-18T11:50:17.000Z,961.12
2023-04-18T11:51:16.894Z,961.15
2023-04-18T11:52:16.872Z,961.14
2023-04-18T11:53:16.854Z,961.14
2023-04-18T11:54:16.817Z,961.14
2023-04-18T11:55:16.801Z,961.14
2023-04-18T11:56:16.770Z,961.03
2023-04-18T11:57:16.742Z,961.03
2023-04-18T11:58:16.731Z,960.97
2023-04-18T11:59:16.694Z,961.02
2023-04-18T12:00:16.675Z,961.11
2023-04-18T12:01:16.655Z,961.12
2023-04-18T12:02:17.266Z,961.15
2023-04-18T12:03:16.895Z,961.19
2023-04-18T12:04:16.854Z,961.19
2023-04-18T12:05:16.763Z,961.16
2023-04-18T12:06:16.607Z,961.21
2023-04-18T12:07:16.494Z,961.22
2023-04-18T12:08:16.470Z,961.25
2023-04-18T12:09:16.464Z,961.24
2023-04-18T12:10:16.421Z,961.24
2023-04-18T12:11:16.397Z,961.26
2023-04-18T12:12:16.377Z,961.27
2023-04-18T12:13:16.358Z,961.21
2023-04-18T12:14:16.321Z,961.17
2023-04-18T12:15:16.330Z,961.19
2023-04-18T12:16:16.320Z,961.17
2023-04-18T12:17:16.251Z,961.13
2023-04-18T12:18:16.226Z,961.20
2023-04-18T12:19:16.229Z,961.18
2023-04-18T12:20:16.197Z,961.24
2023-04-18T12:21:16.156Z,961.20
2023-04-18T12:22:16.128Z,961.21
2023-04-18T12:23:16.111Z,961.23
2023-04-18T12:24:16.269Z,961.20
2023-04-18T12:25:16.055Z,961.20
2023-04-18T12:26:16.043Z,961.19
2023-04-18T12:27:16.009Z,961.22
2023-04-18T12:28:15.986Z,961.20